Time;durP1;ratioP1;P1;durP2;ratioP2;P2;SDS_P1;SDS_P2;PMS_P1;PMS_P2;Temp;Humidity;BMP_temperature;BMP_pressure;BME280_temperature;BME280_humidity;BME280_pressure;Samples;Min_cycle;Max_cycle;Signal;HPM_P1;HPM_P2
2022/08/02 00:01:51;;;;;;;4.10;2.70;;;;;;;18.32;85.15;100418.10;84532;1331;22608;-71
2022/08/02 00:04:00;;;;;;;6.50;2.90;;;;;;;18.32;85.23;100416.86;84600;1329;22887;-71
2022/08/02 00:06:09;;;;;;;3.90;3.50;;;;;;;18.32;85.29;100415.65;84531;1332;22588;-71
2022/08/02 00:08:22;;;;;;;5.90;3.80;;;;;;;18.29;85.04;100417.80;84530;1332;22606;-70
2022/08/02 00:10:32;;;;;;;4.50;2.80;;;;;;;18.26;84.95;100418.67;84529;1331;22594;-70
2022/08/02 00:12:41;;;;;;;3.40;3.10;;;;;;;18.24;85.14;100417.24;84514;1332;25336;-71
2022/08/02 00:14:50;;;;;;;7.70;3.70;;;;;;;18.22;85.10;100423.59;84522;1332;22880;-68
2022/08/02 00:16:58;;;;;;;5.80;4.00;;;;;;;18.21;85.16;100421.18;84563;1331;22670;-69
2022/08/02 00:19:07;;;;;;;5.60;3.20;;;;;;;18.22;85.03;100425.15;84539;1333;22890;-71
2022/08/02 00:21:16;;;;;;;9.10;2.90;;;;;;;18.21;84.98;100424.48;84519;1332;24289;-71
2022/08/02 00:23:24;;;;;;;5.50;3.50;;;;;;;18.20;85.17;100420.87;84554;1331;24224;-71
2022/08/02 00:25:33;;;;;;;4.10;3.30;;;;;;;18.17;85.01;100423.05;84556;1333;22619;-71
2022/08/02 00:27:43;;;;;;;4.80;3.30;;;;;;;18.16;85.11;100427.56;84536;1332;24109;-71
2022/08/02 00:29:52;;;;;;;6.30;3.40;;;;;;;18.14;85.16;100425.21;84554;1329;24281;-71
2022/08/02 00:32:00;;;;;;;6.20;3.40;;;;;;;18.13;85.48;100424.37;84552;1331;25323;-71
2022/08/02 00:34:09;;;;;;;3.20;2.90;;;;;;;18.14;85.64;100415.87;84502;1332;22702;-71
2022/08/02 00:36:18;;;;;;;7.40;3.60;;;;;;;18.12;85.79;100416.66;84503;1332;22625;-71
2022/08/02 00:38:27;;;;;;;4.40;3.20;;;;;;;18.14;85.92;100419.55;84530;1332;22617;-71
2022/08/02 00:40:35;;;;;;;4.30;3.20;;;;;;;18.13;85.81;100415.36;84537;1333;22601;-69
2022/08/02 00:42:44;;;;;;;3.70;3.40;;;;;;;18.12;85.84;100418.48;84506;1331;23976;-72
2022/08/02 00:44:53;;;;;;;5.50;3.40;;;;;;;18.09;85.88;100422.38;84519;1332;22599;-70
2022/08/02 00:47:02;;;;;;;4.00;3.70;;;;;;;18.06;85.77;100425.41;84531;1328;22583;-71
2022/08/02 00:49:10;;;;;;;3.50;3.20;;;;;;;18.00;85.76;100425.93;84516;1328;23036;-71
2022/08/02 00:51:19;;;;;;;5.30;3.60;;;;;;;17.96;85.75;100426.42;84523;1328;22575;-71
2022/08/02 00:53:28;;;;;;;5.80;3.50;;;;;;;17.92;85.92;100424.92;84584;1332;22750;-70
2022/08/02 00:55:38;;;;;;;4.20;3.30;;;;;;;17.90;86.08;100424.92;84570;1333;22587;-72
2022/08/02 00:57:45;;;;;;;;;;;;;;;17.89;86.33;100426.19;84543;1332;23023;-71
2022/08/02 00:59:53;;;;;;;3.90;3.60;;;;;;;17.87;86.70;100424.02;84568;1332;23940;-70
2022/08/02 01:02:02;;;;;;;6.00;3.90;;;;;;;17.88;86.78;100426.64;84533;1331;25453;-69
2022/08/02 01:04:12;;;;;;;3.50;3.20;;;;;;;17.87;86.85;100429.12;84603;1325;22589;-70
2022/08/02 01:06:21;;;;;;;7.00;4.10;;;;;;;17.89;86.90;100433.46;84560;1330;22965;-70
2022/08/02 01:08:30;;;;;;;7.80;4.10;;;;;;;17.86;86.76;100427.80;84574;1333;23994;-71
2022/08/02 01:10:39;;;;;;;8.80;3.90;;;;;;;17.84;86.91;100435.55;84519;1332;22836;-70
2022/08/02 01:12:47;;;;;;;9.00;3.50;;;;;;;17.83;86.86;100435.23;84587;1331;22988;-70
2022/08/02 01:14:58;;;;;;;6.30;3.10;;;;;;;17.82;87.06;100435.45;84575;1331;22595;-71
2022/08/02 01:17:10;;;;;;;5.10;3.60;;;;;;;17.81;87.16;100436.23;84547;1327;22600;-72
2022/08/02 01:19:33;;;;;;;5.90;3.60;;;;;;;17.80;87.17;100434.22;84531;1332;22592;-70
2022/08/02 01:21:53;;;;;;;5.30;3.40;;;;;;;17.80;87.41;100440.04;84572;1331;22610;-70
2022/08/02 01:24:23;;;;;;;5.20;4.10;;;;;;;17.79;87.46;100434.27;84605;1332;26136;-72
2022/08/02 01:26:45;;;;;;;5.60;3.60;;;;;;;17.79;87.39;100434.26;84499;1331;22588;-71
2022/08/02 01:28:57;;;;;;;4.40;3.60;;;;;;;17.81;87.40;100437.52;84568;1332;23973;-70
2022/08/02 01:31:12;;;;;;;7.60;4.00;;;;;;;17.83;87.30;100436.66;84559;1330;22592;-70
2022/08/02 01:33:21;;;;;;;4.50;3.80;;;;;;;17.86;87.62;100431.54;84553;1323;22613;-72
2022/08/02 01:35:34;;;;;;;5.40;3.90;;;;;;;17.88;87.71;100431.20;84530;1332;25160;-71
2022/08/02 01:37:44;;;;;;;5.20;4.40;;;;;;;17.88;87.55;100429.08;84584;1334;22607;-71
2022/08/02 01:39:57;;;;;;;4.40;3.90;;;;;;;17.88;87.54;100430.31;84550;1328;22787;-70
2022/08/02 01:42:06;;;;;;;5.40;3.50;;;;;;;17.87;87.62;100429.14;84595;1332;22593;-70
2022/08/02 01:44:15;;;;;;;4.50;3.70;;;;;;;17.87;87.73;100430.91;84556;1330;22729;-70
2022/08/02 01:46:24;;;;;;;5.60;3.70;;;;;;;17.88;87.99;100431.90;84563;1332;22597;-70
2022/08/02 01:48:33;;;;;;;7.00;4.00;;;;;;;17.90;88.07;100429.49;84581;1324;22894;-69
2022/08/02 01:50:42;;;;;;;5.20;3.70;;;;;;;17.89;87.93;100428.16;84537;1333;23970;-70
2022/08/02 01:52:54;;;;;;;8.60;4.30;;;;;;;17.88;88.07;100432.42;84583;1332;22635;-69
2022/08/02 01:55:06;;;;;;;5.30;4.10;;;;;;;17.87;88.01;100430.01;84537;1332;22698;-70
2022/08/02 01:57:14;;;;;;;5.40;4.20;;;;;;;17.84;87.79;100434.48;84515;1328;22583;-70
2022/08/02 01:59:24;;;;;;;5.30;3.90;;;;;;;17.82;87.90;100438.48;84562;1334;22637;-71
2022/08/02 02:01:33;;;;;;;5.60;4.80;;;;;;;17.79;87.94;100443.06;84536;1331;24238;-71
2022/08/02 02:03:42;;;;;;;4.40;4.10;;;;;;;17.77;88.00;100442.36;84578;1332;22585;-72
2022/08/02 02:05:52;;;;;;;5.60;4.20;;;;;;;17.71;88.05;100445.34;84561;1331;23905;-72
2022/08/02 02:08:01;;;;;;;4.40;3.80;;;;;;;17.69;88.20;100448.64;84590;1334;22641;-70
2022/08/02 02:10:12;;;;;;;4.00;3.70;;;;;;;17.69;88.30;100447.44;84559;1331;24214;-70
2022/08/02 02:12:21;;;;;;;4.90;3.50;;;;;;;17.68;88.38;100449.78;84608;1330;22626;-70
2022/08/02 02:14:31;;;;;;;6.00;4.00;;;;;;;17.69;88.59;100448.52;84596;1330;22593;-68
2022/08/02 02:16:40;;;;;;;5.10;3.60;;;;;;;17.68;88.47;100449.26;84586;1331;22832;-70
2022/08/02 02:18:49;;;;;;;5.80;4.40;;;;;;;17.65;88.46;100447.17;84594;1330;22651;-71
2022/08/02 02:20:58;;;;;;;7.80;4.00;;;;;;;17.64;88.58;100450.08;84558;1333;22595;-71
2022/08/02 02:23:07;;;;;;;8.10;3.90;;;;;;;17.64;88.80;100449.38;84598;1330;24303;-72
2022/08/02 02:25:16;;;;;;;6.30;3.90;;;;;;;17.62;88.69;100453.75;84574;1333;24977;-71
2022/08/02 02:27:25;;;;;;;6.40;3.50;;;;;;;17.58;88.61;100451.86;84570;1332;22589;-70
2022/08/02 02:29:36;;;;;;;5.50;3.60;;;;;;;17.54;88.43;100454.05;84573;1330;24141;-70
2022/08/02 02:31:46;;;;;;;4.60;4.00;;;;;;;17.50;88.49;100454.70;84559;1332;24255;-71
2022/08/02 02:33:59;;;;;;;9.50;4.60;;;;;;;17.46;88.50;100456.73;84547;1333;22591;-71
2022/08/02 02:36:08;;;;;;;11.00;3.70;;;;;;;17.41;88.37;100455.46;84573;1332;24292;-70
2022/08/02 02:38:18;;;;;;;7.60;4.30;;;;;;;17.37;88.43;100460.31;84497;1336;25508;-70
2022/08/02 02:40:27;;;;;;;8.40;3.70;;;;;;;17.34;88.46;100459.10;84495;1332;22623;-71
2022/08/02 02:42:36;;;;;;;5.10;3.40;;;;;;;17.30;88.49;100459.21;84555;1332;22633;-70
2022/08/02 02:44:45;;;;;;;6.30;3.80;;;;;;;17.25;88.42;100460.54;84485;1333;24284;-71
2022/08/02 02:46:56;;;;;;;3.50;3.30;;;;;;;17.20;88.35;100456.98;84498;1333;23989;-70
2022/08/02 02:49:04;;;;;;;7.20;3.50;;;;;;;17.15;88.52;100459.23;84514;1331;24065;-70
2022/08/02 02:51:13;;;;;;;4.40;3.70;;;;;;;17.12;88.56;100461.04;84540;1332;22627;-71
2022/08/02 02:53:21;;;;;;;6.90;3.80;;;;;;;17.08;88.51;100456.70;84496;1329;22666;-70
2022/08/02 02:55:30;;;;;;;4.80;4.30;;;;;;;17.05;88.52;100455.50;84544;1323;22606;-70
2022/08/02 02:57:40;;;;;;;7.70;4.40;;;;;;;17.00;88.61;100456.64;84549;1332;22580;-71
2022/08/02 02:59:49;;;;;;;5.20;4.70;;;;;;;16.97;88.44;100456.84;84544;1332;22615;-70
2022/08/02 03:01:57;;;;;;;5.10;4.50;;;;;;;16.95;88.49;100457.71;84606;1331;22594;-71
2022/08/02 03:04:09;;;;;;;7.40;4.90;;;;;;;16.92;88.46;100458.38;84503;1332;22616;-70
2022/08/02 03:06:18;;;;;;;5.30;4.60;;;;;;;16.90;88.57;100452.18;84543;1333;23895;-70
2022/08/02 03:08:27;;;;;;;5.80;4.80;;;;;;;16.88;88.72;100449.52;84469;1333;22609;-71
2022/08/02 03:10:36;;;;;;;5.50;5.00;;;;;;;16.86;88.74;100449.14;84474;1333;22586;-71
2022/08/02 03:12:45;;;;;;;5.50;4.70;;;;;;;16.83;88.79;100446.64;84490;1332;24108;-71
2022/08/02 03:14:54;;;;;;;5.10;4.50;;;;;;;16.81;88.75;100445.75;84546;1331;22639;-70
2022/08/02 03:17:03;;;;;;;4.90;4.30;;;;;;;16.81;88.90;100447.17;84530;1332;24310;-71
2022/08/02 03:19:11;;;;;;;7.40;4.60;;;;;;;16.80;88.93;100448.79;84532;1327;22580;-70
2022/08/02 03:21:20;;;;;;;5.00;4.50;;;;;;;16.81;88.97;100452.27;84505;1328;22833;-70
2022/08/02 03:23:29;;;;;;;4.60;4.20;;;;;;;16.78;88.77;100450.33;84547;1332;24248;-71
2022/08/02 03:25:38;;;;;;;5.90;4.70;;;;;;;16.75;88.86;100452.27;84497;1332;22591;-72
2022/08/02 03:27:47;;;;;;;7.90;4.60;;;;;;;16.75;88.96;100452.98;84496;1328;22550;-70
2022/08/02 03:29:56;;;;;;;6.90;4.40;;;;;;;16.74;89.06;100456.20;84490;1333;23917;-71
2022/08/02 03:32:05;;;;;;;8.50;4.90;;;;;;;16.73;89.00;100452.88;84500;1332;22745;-71
2022/08/02 03:34:14;;;;;;;6.20;5.10;;;;;;;16.71;88.83;100459.52;84551;1332;22629;-70
2022/08/02 03:36:26;;;;;;;7.90;4.40;;;;;;;16.71;88.94;100463.59;84499;1332;26722;-70
2022/08/02 03:38:35;;;;;;;4.40;4.00;;;;;;;16.72;88.97;100462.30;84534;1331;26538;-72
2022/08/02 03:40:44;;;;;;;7.60;4.90;;;;;;;16.73;89.10;100458.54;84554;1331;22811;-71
2022/08/02 03:42:52;;;;;;;5.30;4.60;;;;;;;16.74;89.22;100461.09;84544;1328;24075;-71
2022/08/02 03:45:02;;;;;;;5.50;4.60;;;;;;;16.77;89.26;100461.48;84551;1333;23454;-71
2022/08/02 03:47:12;;;;;;;4.70;4.30;;;;;;;16.80;89.27;100462.20;84504;1333;23976;-71
2022/08/02 03:49:20;;;;;;;8.00;5.00;;;;;;;16.91;89.60;100464.65;84565;1331;22613;-71
2022/08/02 03:51:29;;;;;;;9.60;4.50;;;;;;;17.10;90.05;100466.94;84320;1332;314614;-71
2022/08/02 03:53:38;;;;;;;5.90;5.40;;;;;;;17.60;91.57;100469.90;84514;1332;25283;-70
2022/08/02 03:55:47;;;;;;;6.10;5.50;;;;;;;18.28;92.40;100474.20;84552;1331;22595;-72
2022/08/02 03:57:57;;;;;;;5.00;4.50;;;;;;;18.97;92.30;100478.59;84507;1327;23804;-71
2022/08/02 04:00:08;;;;;;;5.10;4.60;;;;;;;19.51;89.65;100480.67;84523;1335;22595;-71
2022/08/02 04:02:17;;;;;;;5.70;4.40;;;;;;;20.01;87.87;100480.12;84500;1332;23914;-71
2022/08/02 04:04:27;;;;;;;5.60;4.90;;;;;;;20.55;86.72;100481.70;84462;1333;22955;-69
2022/08/02 04:06:36;;;;;;;7.40;4.50;;;;;;;21.04;84.13;100483.34;84530;1333;24323;-70
2022/08/02 04:08:45;;;;;;;7.80;5.10;;;;;;;21.51;83.20;100485.94;84576;1332;25341;-69
2022/08/02 04:13:23;;;;;;;6.20;4.70;;;;;;;22.46;78.02;100485.11;84483;1331;25334;-68
2022/08/02 04:15:36;;;;;;;7.40;4.90;;;;;;;22.87;76.23;100488.50;84522;1332;22801;-69
2022/08/02 04:17:50;;;;;;;7.80;5.40;;;;;;;22.87;74.62;100484.58;84495;1335;22621;-70
2022/08/02 04:20:01;;;;;;;6.60;5.60;;;;;;;22.61;73.46;100484.64;84497;1335;24291;-72
2022/08/02 04:22:14;;;;;;;8.80;5.80;;;;;;;22.36;72.65;100484.16;84469;1331;22880;-71
2022/08/02 04:24:25;;;;;;;6.90;5.80;;;;;;;22.08;72.77;100486.04;84505;1332;22810;-71
2022/08/02 04:26:33;;;;;;;6.00;5.10;;;;;;;21.81;73.03;100482.37;84501;1332;22604;-71
2022/08/02 04:28:42;;;;;;;8.40;5.20;;;;;;;21.64;73.33;100487.57;84498;1331;22600;-71
2022/08/02 04:30:51;;;;;;;6.70;6.10;;;;;;;21.48;73.45;100494.73;84499;1327;22691;-71
2022/08/02 04:33:00;;;;;;;11.10;6.90;;;;;;;21.36;73.98;100494.45;84553;1332;22641;-71
2022/08/02 04:35:10;;;;;;;7.20;6.20;;;;;;;21.27;73.49;100499.25;84485;1333;22842;-71
2022/08/02 04:37:18;;;;;;;9.80;6.20;;;;;;;21.22;73.72;100502.64;84416;1332;22672;-71
2022/08/02 04:39:27;;;;;;;10.60;6.10;;;;;;;21.20;73.81;100502.46;84495;1332;25648;-71
2022/08/02 04:41:44;;;;;;;8.00;5.70;;;;;;;21.20;73.28;100504.05;84519;1332;23072;-71
2022/08/02 04:43:53;;;;;;;10.40;6.20;;;;;;;21.17;72.45;100506.60;84503;1332;23957;-70
2022/08/02 04:46:02;;;;;;;9.80;5.40;;;;;;;21.18;72.87;100511.19;84474;1332;22559;-69
2022/08/02 04:48:11;;;;;;;8.50;6.10;;;;;;;21.20;72.60;100516.11;84492;1332;24747;-71
2022/08/02 04:50:20;;;;;;;11.40;5.30;;;;;;;21.23;72.29;100517.83;84547;1332;22614;-72
2022/08/02 04:52:29;;;;;;;8.20;5.40;;;;;;;21.25;71.88;100522.07;84549;1333;22616;-72
2022/08/02 04:54:39;;;;;;;7.40;5.50;;;;;;;21.32;71.42;100525.59;84570;1332;22710;-71
2022/08/02 04:56:48;;;;;;;10.70;6.20;;;;;;;21.58;70.66;100524.95;84468;1332;25998;-71
2022/08/02 04:58:57;;;;;;;10.90;6.20;;;;;;;21.96;69.54;100530.50;84469;1332;25444;-71
2022/08/02 05:01:06;;;;;;;9.20;5.10;;;;;;;22.39;69.46;100533.52;84468;1332;22586;-71
2022/08/02 05:03:15;;;;;;;12.60;6.00;;;;;;;23.34;69.58;100534.66;84504;1332;22876;-71
2022/08/02 05:05:24;;;;;;;9.60;5.40;;;;;;;24.40;65.73;100532.88;84541;1332;25432;-69
2022/08/02 05:07:33;;;;;;;9.50;5.40;;;;;;;25.24;62.31;100529.23;84550;1332;22573;-70
2022/08/02 05:09:41;;;;;;;8.70;5.50;;;;;;;26.00;60.29;100529.95;84547;1333;23912;-70
2022/08/02 05:11:50;;;;;;;7.60;5.50;;;;;;;26.87;57.28;100530.38;84550;1332;22620;-70
2022/08/02 05:13:59;;;;;;;8.30;5.20;;;;;;;27.57;54.72;100534.20;84575;1331;22628;-70
2022/08/02 05:16:08;;;;;;;24.40;5.30;;;;;;;28.14;51.48;100536.36;84576;1331;22588;-71
2022/08/02 05:18:17;;;;;;;8.40;4.70;;;;;;;28.53;50.39;100543.13;84595;1327;22890;-70
2022/08/02 05:20:28;;;;;;;9.40;4.50;;;;;;;29.04;48.16;100543.02;84505;1332;25309;-68
2022/08/02 05:22:37;;;;;;;8.20;4.20;;;;;;;29.55;47.69;100545.77;84556;1332;22614;-70
2022/08/02 05:24:46;;;;;;;5.20;3.90;;;;;;;30.04;45.27;100545.32;84499;1329;22690;-69
2022/08/02 05:26:57;;;;;;;7.20;3.60;;;;;;;30.45;44.49;100547.49;84542;1331;22632;-69
2022/08/02 05:29:11;;;;;;;5.80;4.40;;;;;;;30.85;43.35;100550.80;84525;1332;23113;-69
2022/08/02 05:31:23;;;;;;;5.90;3.80;;;;;;;31.29;41.07;100548.85;84506;1333;25442;-70
2022/08/02 05:33:38;;;;;;;6.00;3.70;;;;;;;31.66;41.09;100554.19;84528;1332;22754;-72
2022/08/02 05:35:50;;;;;;;12.10;5.00;;;;;;;32.15;39.61;100558.49;84568;1332;22890;-71
2022/08/02 05:38:03;;;;;;;6.10;3.70;;;;;;;32.51;38.49;100562.48;84516;1332;24170;-70
2022/08/02 05:40:15;;;;;;;4.00;3.00;;;;;;;32.89;37.18;100558.76;84474;1332;24876;-71
2022/08/02 05:42:24;;;;;;;7.50;3.80;;;;;;;32.99;37.29;100560.52;84553;1332;22629;-70
2022/08/02 05:44:32;;;;;;;;;;;;;;;32.79;36.19;100562.89;84578;1332;23950;-70
2022/08/02 05:46:41;;;;;;;7.10;4.10;;;;;;;32.05;35.81;100564.60;84486;1333;24377;-69
2022/08/02 05:48:54;;;;;;;4.90;3.20;;;;;;;31.34;37.32;100563.36;84515;1332;22730;-70
2022/08/02 05:51:17;;;;;;;4.80;3.80;;;;;;;30.79;37.54;100567.57;84474;1332;22754;-72
2022/08/02 05:53:36;;;;;;;5.30;3.60;;;;;;;30.32;38.73;100572.95;84508;1332;24082;-71
2022/08/02 05:55:56;;;;;;;4.40;2.90;;;;;;;30.21;39.44;100575.02;84534;1332;26389;-69
2022/08/02 05:58:24;;;;;;;6.80;3.00;;;;;;;30.36;39.06;100573.94;84589;1332;26475;-69
2022/08/02 06:00:37;;;;;;;8.80;3.10;;;;;;;30.33;38.84;100573.77;84580;1332;22590;-70
2022/08/02 06:03:15;;;;;;;8.20;3.20;;;;;;;30.40;39.39;100575.41;84504;1332;22595;-70
2022/08/02 06:05:24;;;;;;;5.50;3.00;;;;;;;30.61;38.94;100573.30;84554;1333;22615;-70
2022/08/02 06:07:36;;;;;;;3.50;2.70;;;;;;;30.69;37.99;100576.86;84495;1332;24578;-69
2022/08/02 06:09:58;;;;;;;3.90;2.60;;;;;;;30.73;37.77;100576.14;84507;1327;23931;-70
2022/08/02 06:12:09;;;;;;;3.50;2.80;;;;;;;30.71;38.45;100577.81;84490;1334;22608;-69
2022/08/02 06:14:25;;;;;;;3.60;2.50;;;;;;;30.91;38.46;100577.95;84573;1327;23067;-71
2022/08/02 06:16:42;;;;;;;7.00;2.50;;;;;;;31.50;38.50;100576.88;84579;1327;22985;-70
2022/08/02 06:18:58;;;;;;;3.30;2.40;;;;;;;32.02;35.93;100576.81;84524;1335;22606;-70
2022/08/02 06:21:09;;;;;;;3.90;2.70;;;;;;;32.49;36.11;100580.59;84463;1333;22987;-68
2022/08/02 06:23:20;;;;;;;2.80;2.10;;;;;;;33.11;34.95;100574.50;84589;1332;24112;-70
2022/08/02 06:25:29;;;;;;;2.60;2.20;;;;;;;33.82;33.28;100574.04;84492;1334;24261;-70
2022/08/02 06:27:38;;;;;;;5.10;2.40;;;;;;;34.33;32.22;100574.35;84509;1327;22622;-70
2022/08/02 06:29:48;;;;;;;7.00;2.20;;;;;;;34.71;30.48;100577.69;84518;1331;25462;-70
2022/08/02 06:31:58;;;;;;;4.60;2.10;;;;;;;34.92;30.08;100576.84;84494;1333;24084;-70
2022/08/02 06:34:08;;;;;;;2.50;2.20;;;;;;;35.08;29.66;100582.88;84553;1331;22588;-70
2022/08/02 06:36:23;;;;;;;2.70;2.00;;;;;;;34.96;28.89;100587.48;84431;1331;25260;-69
2022/08/02 06:38:37;;;;;;;3.20;1.50;;;;;;;35.08;28.70;100586.55;84497;1332;22624;-71
2022/08/02 06:40:52;;;;;;;4.70;1.70;;;;;;;35.16;27.87;100586.48;84508;1333;22693;-70
2022/08/02 06:43:13;;;;;;;2.80;1.60;;;;;;;35.03;28.02;100593.05;84514;1331;22890;-70
2022/08/02 06:45:22;;;;;;;8.20;1.80;;;;;;;34.75;27.56;100594.38;84586;1332;22765;-70
2022/08/02 06:47:31;;;;;;;2.30;1.00;;;;;;;34.50;28.20;100593.64;84543;1335;22868;-70
2022/08/02 06:49:40;;;;;;;4.20;1.60;;;;;;;34.37;28.50;100597.91;84487;1336;25273;-69
2022/08/02 06:51:50;;;;;;;1.80;1.40;;;;;;;34.22;28.47;100597.11;84500;1334;22833;-69
2022/08/02 06:53:57;;;;;;;;;;;;;;;34.10;28.34;100602.08;84545;1331;22582;-71
2022/08/02 06:56:07;;;;;;;2.80;1.30;;;;;;;33.95;27.58;100602.66;84481;1331;22731;-69
2022/08/02 06:58:17;;;;;;;;;;;;;;;34.17;28.44;100600.08;84524;1332;23954;-71
2022/08/02 07:00:27;;;;;;;2.10;1.30;;;;;;;34.76;27.88;100599.98;84465;1330;22625;-70
2022/08/02 07:02:36;;;;;;;4.30;2.20;;;;;;;35.51;28.00;100602.05;84478;1332;24232;-70
2022/08/02 07:04:47;;;;;;;3.30;1.50;;;;;;;36.23;27.09;100600.58;84511;1335;22645;-68
2022/08/02 07:06:57;;;;;;;6.40;1.80;;;;;;;36.84;26.38;100609.36;84559;1331;25479;-71
2022/08/02 07:09:06;;;;;;;4.20;1.70;;;;;;;37.09;26.63;100606.27;84589;1329;23963;-69
2022/08/02 07:11:18;;;;;;;3.30;1.50;;;;;;;37.28;25.72;100609.03;84558;1335;22595;-70
2022/08/02 07:13:27;;;;;;;5.40;2.90;;;;;;;37.20;24.57;100606.77;84566;1333;22610;-72
2022/08/02 07:15:35;;;;;;;4.00;2.30;;;;;;;36.98;25.17;100608.94;84565;1333;22852;-72
2022/08/02 07:17:47;;;;;;;3.50;2.10;;;;;;;37.12;25.02;100607.63;84445;1334;22609;-72
2022/08/02 07:19:56;;;;;;;2.70;1.80;;;;;;;37.23;24.39;100616.52;84481;1336;22842;-71
2022/08/02 07:22:03;;;;;;;;;;;;;;;37.10;23.98;100618.20;84540;1333;22591;-70
2022/08/02 07:24:13;;;;;;;2.70;1.40;;;;;;;37.15;24.48;100618.37;84545;1335;22805;-69
2022/08/02 07:26:23;;;;;;;3.70;1.30;;;;;;;37.53;24.04;100617.68;84530;1334;22875;-69
2022/08/02 07:28:32;;;;;;;2.00;1.20;;;;;;;37.88;23.26;100617.22;84560;1331;24215;-70
2022/08/02 07:30:40;;;;;;;1.70;1.50;;;;;;;38.03;23.07;100613.83;84480;1336;23841;-70
2022/08/02 07:32:50;;;;;;;5.40;1.40;;;;;;;38.15;22.57;100612.52;84520;1332;23976;-70
2022/08/02 07:34:59;;;;;;;2.00;1.20;;;;;;;38.09;22.31;100608.20;84550;1324;22585;-69
2022/08/02 07:37:08;;;;;;;1.20;1.10;;;;;;;38.27;22.74;100608.23;84492;1333;22602;-69
2022/08/02 07:39:16;;;;;;;3.70;1.40;;;;;;;38.38;21.69;100607.60;84540;1332;25036;-70
2022/08/02 07:41:25;;;;;;;3.20;1.40;;;;;;;38.28;21.72;100612.59;84559;1332;22588;-70
2022/08/02 07:43:34;;;;;;;2.00;1.20;;;;;;;38.23;21.84;100610.42;84533;1333;22600;-69
2022/08/02 07:45:43;;;;;;;3.00;1.20;;;;;;;38.49;22.00;100606.11;84562;1332;23905;-69
2022/08/02 07:47:52;;;;;;;3.60;1.50;;;;;;;38.85;22.32;100607.46;84569;1335;23951;-69
2022/08/02 07:50:00;;;;;;;7.00;1.30;;;;;;;39.20;21.49;100609.46;84549;1333;25445;-69
2022/08/02 07:52:10;;;;;;;1.50;1.40;;;;;;;39.39;21.93;100603.57;84573;1332;22854;-69
2022/08/02 07:54:19;;;;;;;9.00;2.10;;;;;;;39.60;21.86;100606.95;84552;1333;23051;-70
2022/08/02 07:56:28;;;;;;;2.20;1.40;;;;;;;39.77;20.84;100604.67;84569;1332;23497;-71
2022/08/02 07:58:36;;;;;;;2.80;1.30;;;;;;;39.70;20.64;100604.81;84461;1338;24234;-69
2022/08/02 08:00:49;;;;;;;1.90;1.20;;;;;;;39.68;21.49;100605.16;84529;1335;23971;-69
2022/08/02 08:03:00;;;;;;;1.70;1.30;;;;;;;39.76;20.79;100609.33;84495;1335;24265;-69
2022/08/02 08:05:13;;;;;;;3.20;1.80;;;;;;;39.79;20.80;100612.38;84484;1333;22878;-71
2022/08/02 08:07:23;;;;;;;5.00;1.50;;;;;;;39.77;20.66;100612.07;84432;1334;22613;-70
2022/08/02 08:09:32;;;;;;;2.30;1.50;;;;;;;39.86;20.66;100609.27;84570;1333;22600;-70
2022/08/02 08:11:41;;;;;;;1.60;1.50;;;;;;;40.03;20.77;100612.67;84494;1336;22589;-70
2022/08/02 08:13:53;;;;;;;2.80;1.30;;;;;;;40.15;20.26;100612.25;84540;1335;24247;-70
2022/08/02 08:16:02;;;;;;;2.50;1.40;;;;;;;40.10;20.10;100610.24;84528;1331;24222;-71
2022/08/02 08:18:12;;;;;;;4.40;1.80;;;;;;;40.10;19.93;100610.79;84537;1334;22586;-70
2022/08/02 08:20:20;;;;;;;6.20;1.60;;;;;;;40.22;19.54;100613.46;84543;1332;22607;-70
2022/08/02 08:22:29;;;;;;;1.70;1.60;;;;;;;40.24;19.94;100613.66;84517;1335;24295;-70
2022/08/02 08:24:38;;;;;;;2.30;1.50;;;;;;;40.26;19.97;100613.52;84494;1335;22585;-71
2022/08/02 08:26:47;;;;;;;3.20;1.30;;;;;;;40.44;19.40;100612.29;84536;1335;22700;-71
2022/08/02 08:28:56;;;;;;;2.60;1.50;;;;;;;40.39;19.23;100614.13;84559;1335;22592;-71
2022/08/02 08:31:05;;;;;;;2.10;1.30;;;;;;;40.36;18.60;100614.34;84552;1331;25259;-71
2022/08/02 08:33:14;;;;;;;3.70;2.30;;;;;;;40.18;19.31;100613.76;84540;1331;22571;-71
2022/08/02 08:35:23;;;;;;;6.10;2.30;;;;;;;39.91;19.69;100617.39;84552;1331;22644;-70
2022/08/02 08:37:37;;;;;;;2.70;1.60;;;;;;;39.88;19.75;100619.55;84548;1331;25291;-70
2022/08/02 08:39:46;;;;;;;2.60;1.80;;;;;;;40.02;19.94;100619.22;84591;1335;22606;-72
2022/08/02 08:41:55;;;;;;;3.70;1.80;;;;;;;40.16;19.81;100621.63;84540;1328;23059;-72
2022/08/02 08:44:03;;;;;;;4.40;2.10;;;;;;;40.14;19.66;100621.26;84563;1335;22600;-71
2022/08/02 08:46:17;;;;;;;8.70;4.30;;;;;;;40.04;20.76;100619.96;84559;1333;22587;-71
2022/08/02 08:48:25;;;;;;;10.20;3.90;;;;;;;40.22;19.44;100620.96;84556;1335;23814;-71
2022/08/02 08:50:35;;;;;;;8.10;4.80;;;;;;;40.09;19.95;100619.08;84534;1335;22630;-71
2022/08/02 08:52:50;;;;;;;12.90;4.80;;;;;;;40.17;20.05;100622.43;84526;1334;22613;-71
2022/08/02 08:55:00;;;;;;;10.30;5.70;;;;;;;40.18;19.81;100624.27;84542;1335;22985;-71
2022/08/02 08:57:09;;;;;;;12.50;4.00;;;;;;;40.20;19.63;100626.86;84481;1336;22586;-71
2022/08/02 08:59:18;;;;;;;8.70;4.60;;;;;;;40.23;19.27;100627.35;84544;1335;22636;-70
2022/08/02 09:01:27;;;;;;;5.70;3.70;;;;;;;40.34;19.72;100627.48;84538;1335;23938;-70
2022/08/02 09:03:35;;;;;;;7.60;3.30;;;;;;;40.56;19.40;100625.79;84564;1331;22622;-70
2022/08/02 09:05:46;;;;;;;6.10;3.60;;;;;;;40.77;19.71;100624.67;84529;1335;24242;-70
2022/08/02 09:07:55;;;;;;;6.20;3.50;;;;;;;40.96;19.89;100623.76;84597;1327;22584;-69
2022/08/02 09:10:06;;;;;;;11.80;2.80;;;;;;;41.02;20.12;100625.95;84487;1334;25096;-70
2022/08/02 09:12:23;;;;;;;12.20;3.30;;;;;;;41.05;20.28;100622.46;84555;1332;22608;-70
2022/08/02 09:14:32;;;;;;;8.80;3.20;;;;;;;41.25;19.09;100623.27;84568;1335;22670;-70
2022/08/02 09:16:43;;;;;;;4.30;2.50;;;;;;;41.14;20.05;100626.98;84551;1333;24342;-70
2022/08/02 09:18:51;;;;;;;4.50;2.30;;;;;;;41.09;20.19;100629.86;84543;1328;22603;-70
2022/08/02 09:21:02;;;;;;;5.80;2.10;;;;;;;40.95;19.81;100625.11;84545;1333;23927;-70
2022/08/02 09:23:11;;;;;;;5.80;2.90;;;;;;;40.92;20.26;100625.02;84572;1334;22614;-70
2022/08/02 09:25:21;;;;;;;10.80;3.00;;;;;;;40.50;20.84;100628.98;84536;1334;22612;-70
2022/08/02 09:27:30;;;;;;;11.30;3.40;;;;;;;39.94;21.56;100628.13;84492;1336;26599;-70
2022/08/02 09:29:39;;;;;;;12.20;3.20;;;;;;;39.61;22.40;100629.66;84487;1334;23931;-70
2022/08/02 09:31:48;;;;;;;4.80;2.70;;;;;;;39.44;21.85;100630.25;84480;1334;24295;-70
2022/08/02 09:33:58;;;;;;;7.00;3.80;;;;;;;39.02;21.38;100636.37;84506;1336;22744;-70
2022/08/02 09:36:11;;;;;;;7.70;4.20;;;;;;;38.43;21.60;100636.90;84541;1335;22610;-71
2022/08/02 09:38:20;;;;;;;4.70;2.80;;;;;;;37.85;21.79;100640.80;84600;1335;22606;-71
2022/08/02 09:40:40;;;;;;;5.10;3.10;;;;;;;37.34;23.36;100638.19;84479;1334;22614;-70
2022/08/02 09:43:02;;;;;;;4.90;3.00;;;;;;;37.03;24.77;100640.92;84542;1335;22594;-69
2022/08/02 09:45:13;;;;;;;12.30;3.30;;;;;;;36.60;24.38;100641.09;84542;1334;22614;-69
2022/08/02 09:47:21;;;;;;;7.80;3.70;;;;;;;36.18;24.25;100641.94;84549;1335;24004;-69
2022/08/02 09:49:32;;;;;;;3.80;2.80;;;;;;;35.69;24.74;100644.74;84469;1336;22709;-70
2022/08/02 09:51:49;;;;;;;3.90;2.30;;;;;;;35.30;24.77;100645.17;84487;1336;22586;-71
2022/08/02 09:53:59;;;;;;;5.00;2.20;;;;;;;35.07;25.34;100644.26;84560;1335;22666;-71
2022/08/02 09:56:08;;;;;;;3.40;2.20;;;;;;;34.95;25.46;100641.59;84476;1336;22606;-70
2022/08/02 09:58:22;;;;;;;6.20;2.40;;;;;;;34.70;25.92;100637.16;84545;1334;25461;-70
2022/08/02 10:00:31;;;;;;;4.60;2.10;;;;;;;34.63;26.60;100639.00;84551;1327;22724;-70
2022/08/02 10:02:42;;;;;;;3.40;1.80;;;;;;;34.51;25.98;100638.20;84568;1335;23035;-71
2022/08/02 10:04:51;;;;;;;5.40;1.80;;;;;;;34.44;26.29;100641.70;84567;1327;23044;-70
2022/08/02 10:07:02;;;;;;;3.60;2.50;;;;;;;34.44;26.66;100641.86;84570;1331;23955;-70
2022/08/02 10:09:12;;;;;;;4.20;1.90;;;;;;;34.46;27.16;100640.40;84585;1331;24036;-71
2022/08/02 10:11:21;;;;;;;4.80;1.90;;;;;;;34.32;26.99;100640.00;84522;1334;22617;-69